Wetterdaten: Woche 30.03.15 - 05.04.15 (KW14)
Datum Zeit Temp. Aussen +5cm Feuchte Auss Luftdruck Regen Sonnenschein Regendauer Solar Windben
30.03.2015 00:00 6,9 C 5,0 C 92 % 996,1 hPa 0,0 l/m 0,00 h 0,00 h 0 W/m 23,2 km/h (4 Bft)
30.03.2015 01:00 7,1 C 5,4 C 89 % 996,2 hPa 0,0 l/m 0,00 h 0,23 h 0 W/m 21,3 km/h (4 Bft)
30.03.2015 02:00 7,6 C 5,6 C 91 % 996,3 hPa 0,4 l/m 0,00 h 0,73 h 0 W/m 31,0 km/h (5 Bft)
30.03.2015 03:00 6,8 C 4,8 C 91 % 997,3 hPa 0,2 l/m 0,00 h 0,03 h 0 W/m 31,8 km/h (5 Bft)
30.03.2015 04:00 6,4 C 4,2 C 88 % 997,6 hPa 0,0 l/m 0,00 h 0,00 h 0 W/m 25,9 km/h (4 Bft)
30.03.2015 05:00 6,3 C 4,1 C 87 % 998,1 hPa 0,0 l/m 0,00 h 0,00 h 0 W/m 28,8 km/h (5 Bft)
30.03.2015 06:00 6,0 C 3,9 C 86 % 998,7 hPa 0,0 l/m 0,00 h 0,00 h 0 W/m 26,5 km/h (4 Bft)
30.03.2015 07:00 5,8 C 4,1 C 85 % 999,6 hPa 0,0 l/m 0,07 h 0,00 h 16 W/m 23,0 km/h (4 Bft)
30.03.2015 08:00 6,4 C 5,2 C 86 % 1000,5 hPa 0,0 l/m 0,20 h 0,00 h 101 W/m 26,7 km/h (4 Bft)
30.03.2015 09:00 7,2 C 6,1 C 79 % 1001,7 hPa 0,0 l/m 0,50 h 0,00 h 219 W/m 36,8 km/h (5 Bft)
30.03.2015 10:00 8,1 C 7,1 C 73 % 1003,0 hPa 0,0 l/m 0,80 h 0,00 h 430 W/m 39,0 km/h (6 Bft)
30.03.2015 11:00 8,7 C 7,7 C 68 % 1004,0 hPa 0,0 l/m 0,37 h 0,20 h 343 W/m 39,2 km/h (6 Bft)
30.03.2015 12:00 7,8 C 6,6 C 79 % 1005,0 hPa 0,0 l/m 0,57 h 0,33 h 452 W/m 38,1 km/h (5 Bft)
30.03.2015 13:00 9,1 C 8,8 C 71 % 1005,8 hPa 0,0 l/m 0,77 h 0,00 h 540 W/m 41,7 km/h (6 Bft)
30.03.2015 14:00 8,8 C 8,6 C 68 % 1007,2 hPa 0,2 l/m 0,47 h 0,00 h 325 W/m 38,6 km/h (5 Bft)
30.03.2015 15:00 8,8 C 8,9 C 64 % 1008,3 hPa 0,0 l/m 0,60 h 0,00 h 318 W/m 42,0 km/h (6 Bft)
30.03.2015 16:00 9,6 C 10,0 C 62 % 1008,9 hPa 0,0 l/m 0,73 h 0,10 h 402 W/m 38,1 km/h (5 Bft)
30.03.2015 17:00 9,5 C 8,3 C 58 % 1009,6 hPa 0,0 l/m 0,17 h 0,00 h 169 W/m 36,3 km/h (5 Bft)
30.03.2015 18:00 8,9 C 7,2 C 56 % 1010,2 hPa 0,0 l/m 0,87 h 0,00 h 157 W/m 29,1 km/h (5 Bft)
30.03.2015 19:00 8,3 C 6,1 C 60 % 1010,4 hPa 0,0 l/m 0,10 h 0,00 h 31 W/m 18,9 km/h (3 Bft)
30.03.2015 20:00 6,8 C 4,3 C 64 % 1010,1 hPa 0,0 l/m 0,00 h 0,00 h 5 W/m 10,6 km/h (2 Bft)
30.03.2015 21:00 5,9 C 3,7 C 70 % 1009,2 hPa 0,0 l/m 0,00 h 0,00 h 0 W/m 8,5 km/h (2 Bft)
30.03.2015 22:00 6,1 C 4,9 C 72 % 1007,6 hPa 0,0 l/m 0,00 h 0,00 h 0 W/m 15,2 km/h (3 Bft)
30.03.2015 23:00 6,8 C 4,7 C 75 % 1006,1 hPa 0,2 l/m 0,00 h 0,67 h 0 W/m 24,3 km/h (4 Bft)
31.03.2015 00:00 6,1 C 3,9 C 87 % 1004,2 hPa 1,8 l/m 0,00 h 0,97 h 0 W/m 16,5 km/h (3 Bft)
31.03.2015 01:00 5,8 C 4,4 C 93 % 1000,6 hPa 3,0 l/m 0,00 h 1,00 h 0 W/m 20,5 km/h (4 Bft)
31.03.2015 02:00 6,5 C 5,4 C 96 % 997,6 hPa 3,2 l/m 0,00 h 1,00 h 0 W/m 24,9 km/h (4 Bft)
31.03.2015 03:00 8,8 C 7,5 C 98 % 994,5 hPa 2,0 l/m 0,00 h 1,00 h 0 W/m 45,5 km/h (6 Bft)
31.03.2015 04:00 10,2 C 8,5 C 97 % 992,1 hPa 0,8 l/m 0,00 h 0,95 h 0 W/m 60,7 km/h (7 Bft)
31.03.2015 05:00 10,6 C 8,9 C 96 % 991,8 hPa 0,8 l/m 0,00 h 1,00 h 0 W/m 59,1 km/h (7 Bft)
31.03.2015 06:00 10,3 C 8,4 C 96 % 991,6 hPa 0,6 l/m 0,00 h 0,97 h 0 W/m 62,7 km/h (8 Bft)
31.03.2015 07:00 10,1 C 8,2 C 95 % 992,0 hPa 0,6 l/m 0,00 h 0,97 h 4 W/m 58,1 km/h (7 Bft)
31.03.2015 08:00 9,9 C 8,0 C 94 % 993,3 hPa 2,0 l/m 0,03 h 0,93 h 32 W/m 47,3 km/h (6 Bft)
31.03.2015 09:00 10,3 C 8,6 C 86 % 994,8 hPa 0,0 l/m 0,67 h 0,23 h 267 W/m 51,8 km/h (7 Bft)
31.03.2015 10:00 10,8 C 9,2 C 74 % 995,8 hPa 0,0 l/m 0,00 h 0,00 h 157 W/m 54,0 km/h (7 Bft)
31.03.2015 11:00 11,1 C 10,0 C 70 % 997,1 hPa 0,0 l/m 0,13 h 0,00 h 229 W/m 54,8 km/h (7 Bft)
31.03.2015 12:00 10,9 C 9,8 C 67 % 998,7 hPa 0,0 l/m 0,13 h 0,43 h 248 W/m 58,1 km/h (7 Bft)
31.03.2015 13:00 11,4 C 10,6 C 67 % 1000,1 hPa 0,0 l/m 0,77 h 0,10 h 657 W/m 53,8 km/h (7 Bft)
31.03.2015 14:00 12,5 C 11,8 C 61 % 1001,7 hPa 0,0 l/m 0,77 h 0,10 h 643 W/m 53,8 km/h (7 Bft)
31.03.2015 15:00 11,5 C 11,1 C 58 % 1003,3 hPa 0,0 l/m 0,23 h 0,37 h 298 W/m 59,3 km/h (7 Bft)
31.03.2015 16:00 10,9 C 10,3 C 57 % 1004,8 hPa 0,0 l/m 0,13 h 0,00 h 186 W/m 45,4 km/h (6 Bft)
31.03.2015 17:00 10,5 C 8,8 C 60 % 1005,7 hPa 0,0 l/m 0,07 h 0,43 h 115 W/m 47,5 km/h (6 Bft)
31.03.2015 18:00 9,9 C 8,5 C 63 % 1006,0 hPa 0,0 l/m 0,20 h 0,30 h 77 W/m 42,0 km/h (6 Bft)
31.03.2015 19:00 9,2 C 6,5 C 69 % 1006,8 hPa 0,4 l/m 0,10 h 0,70 h 16 W/m 35,4 km/h (5 Bft)
31.03.2015 20:00 6,8 C 4,4 C 76 % 1008,1 hPa 0,0 l/m 0,00 h 0,30 h 6 W/m 35,0 km/h (5 Bft)
31.03.2015 21:00 6,0 C 3,9 C 83 % 1008,7 hPa 0,2 l/m 0,00 h 0,10 h 0 W/m 20,8 km/h (4 Bft)
31.03.2015 22:00 4,4 C 2,3 C 87 % 1009,1 hPa 0,8 l/m 0,00 h 0,17 h 0 W/m 33,1 km/h (5 Bft)
31.03.2015 23:00 4,5 C 2,4 C 83 % 1009,4 hPa 0,0 l/m 0,00 h 0,00 h 0 W/m 34,2 km/h (5 Bft)
01.04.2015 00:00 4,9 C 3,1 C 82 % 1010,0 hPa 0,0 l/m 0,00 h 0,00 h 0 W/m 29,1 km/h (5 Bft)
01.04.2015 01:00 4,7 C 1,9 C 84 % 1010,5 hPa 0,2 l/m 0,00 h 0,53 h 0 W/m 34,5 km/h (5 Bft)
01.04.2015 02:00 4,2 C 1,4 C 83 % 1010,9 hPa 0,4 l/m 0,00 h 0,17 h 0 W/m 30,3 km/h (5 Bft)
01.04.2015 03:00 4,7 C 2,0 C 78 % 1011,4 hPa 0,6 l/m 0,00 h 0,10 h 0 W/m 34,9 km/h (5 Bft)
01.04.2015 04:00 4,8 C 2,5 C 77 % 1011,7 hPa 0,6 l/m 0,00 h 0,07 h 0 W/m 36,1 km/h (5 Bft)
01.04.2015 05:00 4,7 C 2,7 C 77 % 1012,4 hPa 0,4 l/m 0,00 h 0,20 h 0 W/m 34,2 km/h (5 Bft)
01.04.2015 06:00 4,3 C 2,8 C 79 % 1013,0 hPa 0,4 l/m 0,00 h 0,00 h 0 W/m 36,1 km/h (5 Bft)
01.04.2015 07:00 4,4 C 3,1 C 80 % 1013,9 hPa 0,4 l/m 0,00 h 0,00 h 8 W/m 31,7 km/h (5 Bft)
01.04.2015 08:00 4,5 C 2,7 C 82 % 1015,4 hPa 0,4 l/m 0,00 h 0,77 h 30 W/m 29,2 km/h (5 Bft)
01.04.2015 09:00 3,6 C 2,1 C 90 % 1016,4 hPa 0,4 l/m 0,13 h 0,77 h 98 W/m 26,5 km/h (4 Bft)
01.04.2015 10:00 4,5 C 3,3 C 92 % 1016,9 hPa 0,0 l/m 0,47 h 0,07 h 278 W/m 26,3 km/h (4 Bft)
01.04.2015 11:00 5,5 C 4,3 C 88 % 1017,5 hPa 0,0 l/m 0,73 h 0,10 h 458 W/m 31,3 km/h (5 Bft)
01.04.2015 12:00 6,3 C 5,3 C 86 % 1017,7 hPa 0,2 l/m 0,43 h 0,27 h 324 W/m 22,6 km/h (4 Bft)
01.04.2015 13:00 8,5 C 7,8 C 73 % 1017,6 hPa 0,0 l/m 0,83 h 0,00 h 716 W/m 41,7 km/h (6 Bft)
01.04.2015 14:00 8,2 C 7,1 C 69 % 1017,9 hPa 0,0 l/m 0,33 h 0,40 h 362 W/m 42,5 km/h (6 Bft)
01.04.2015 15:00 7,7 C 7,0 C 68 % 1017,9 hPa 0,0 l/m 0,10 h 0,43 h 183 W/m 40,5 km/h (6 Bft)
01.04.2015 16:00 7,0 C 5,4 C 74 % 1018,2 hPa 0,2 l/m 0,27 h 0,90 h 205 W/m 38,3 km/h (5 Bft)
01.04.2015 17:00 6,7 C 5,0 C 78 % 1018,4 hPa 0,2 l/m 0,23 h 0,57 h 143 W/m 32,4 km/h (5 Bft)
01.04.2015 18:00 7,3 C 6,3 C 70 % 1018,2 hPa 0,0 l/m 0,37 h 0,10 h 122 W/m 33,3 km/h (5 Bft)
01.04.2015 19:00 7,6 C 5,9 C 67 % 1018,3 hPa 0,0 l/m 0,03 h 0,07 h 39 W/m 29,1 km/h (5 Bft)
01.04.2015 20:00 7,1 C 5,1 C 70 % 1018,1 hPa 0,0 l/m 0,00 h 0,00 h 4 W/m 19,9 km/h (4 Bft)
01.04.2015 21:00 7,1 C 5,5 C 71 % 1017,6 hPa 0,0 l/m 0,00 h 0,23 h 0 W/m 26,4 km/h (4 Bft)
01.04.2015 22:00 6,7 C 4,4 C 78 % 1016,9 hPa 0,0 l/m 0,00 h 0,37 h 0 W/m 34,2 km/h (5 Bft)
01.04.2015 23:00 6,6 C 4,8 C 81 % 1016,4 hPa 0,0 l/m 0,00 h 0,37 h 0 W/m 40,2 km/h (6 Bft)
02.04.2015 00:00 5,5 C 3,8 C 87 % 1015,9 hPa 0,2 l/m 0,00 h 0,33 h 0 W/m 30,9 km/h (5 Bft)
02.04.2015 01:00 5,3 C 3,9 C 90 % 1015,1 hPa 0,2 l/m 0,00 h 0,53 h 0 W/m 29,9 km/h (5 Bft)
02.04.2015 02:00 5,5 C 3,9 C 92 % 1014,0 hPa 0,2 l/m 0,00 h 0,47 h 0 W/m 29,9 km/h (5 Bft)
02.04.2015 03:00 5,5 C 3,9 C 93 % 1012,7 hPa 0,0 l/m 0,00 h 0,70 h 0 W/m 32,8 km/h (5 Bft)
02.04.2015 04:00 5,4 C 3,9 C 94 % 1011,3 hPa 0,6 l/m 0,00 h 1,00 h 0 W/m 30,0 km/h (5 Bft)
02.04.2015 05:00 5,4 C 3,9 C 95 % 1010,1 hPa 1,0 l/m 0,00 h 1,00 h 0 W/m 27,3 km/h (4 Bft)
02.04.2015 06:00 5,4 C 3,9 C 95 % 1009,1 hPa 1,2 l/m 0,00 h 0,97 h 0 W/m 26,9 km/h (4 Bft)
02.04.2015 07:00 5,5 C 3,9 C 96 % 1009,0 hPa 0,8 l/m 0,00 h 1,00 h 7 W/m 25,6 km/h (4 Bft)
02.04.2015 08:00 4,7 C 3,3 C 95 % 1010,1 hPa 0,0 l/m 0,00 h 0,80 h 28 W/m 24,4 km/h (4 Bft)
02.04.2015 09:00 4,7 C 3,9 C 95 % 1011,4 hPa 0,2 l/m 0,03 h 0,10 h 116 W/m 27,2 km/h (4 Bft)
02.04.2015 10:00 5,3 C 4,6 C 89 % 1012,8 hPa 0,0 l/m 0,57 h 0,03 h 307 W/m 32,0 km/h (5 Bft)
02.04.2015 11:00 6,9 C 6,1 C 75 % 1013,7 hPa 0,0 l/m 0,83 h 0,00 h 598 W/m 39,8 km/h (6 Bft)
02.04.2015 12:00 8,3 C 7,5 C 64 % 1014,6 hPa 0,0 l/m 0,83 h 0,00 h 682 W/m 39,3 km/h (6 Bft)
02.04.2015 13:00 8,8 C 8,0 C 59 % 1015,6 hPa 0,0 l/m 0,57 h 0,00 h 533 W/m 37,2 km/h (5 Bft)
02.04.2015 14:00 9,0 C 8,6 C 59 % 1016,5 hPa 0,0 l/m 0,63 h 0,00 h 514 W/m 36,7 km/h (5 Bft)
02.04.2015 15:00 9,1 C 10,3 C 56 % 1017,2 hPa 0,0 l/m 0,30 h 0,00 h 333 W/m 35,8 km/h (5 Bft)
02.04.2015 16:00 8,8 C 9,4 C 58 % 1018,1 hPa 0,0 l/m 0,47 h 0,00 h 309 W/m 29,2 km/h (5 Bft)
02.04.2015 17:00 8,7 C 8,4 C 58 % 1019,0 hPa 0,0 l/m 0,40 h 0,00 h 235 W/m 32,2 km/h (5 Bft)
02.04.2015 18:00 8,0 C 6,9 C 61 % 1019,9 hPa 0,0 l/m 0,33 h 0,00 h 128 W/m 25,8 km/h (4 Bft)
02.04.2015 19:00 7,2 C 5,6 C 64 % 1020,4 hPa 0,0 l/m 0,00 h 0,00 h 23 W/m 20,1 km/h (4 Bft)
02.04.2015 20:00 6,6 C 4,8 C 71 % 1021,1 hPa 0,0 l/m 0,00 h 0,00 h 5 W/m 24,5 km/h (4 Bft)
02.04.2015 21:00 5,5 C 3,4 C 77 % 1021,6 hPa 0,0 l/m 0,00 h 0,00 h 0 W/m 14,5 km/h (3 Bft)
02.04.2015 22:00 4,5 C 2,5 C 81 % 1022,2 hPa 0,0 l/m 0,00 h 0,00 h 0 W/m 11,0 km/h (2 Bft)
02.04.2015 23:00 3,8 C 2,0 C 84 % 1022,5 hPa 0,0 l/m 0,00 h 0,00 h 0 W/m 11,0 km/h (2 Bft)
03.04.2015 00:00 2,9 C 0,9 C 86 % 1022,7 hPa 0,0 l/m 0,00 h 0,00 h 0 W/m 7,0 km/h (2 Bft)
03.04.2015 01:00 2,3 C 1,1 C 88 % 1022,8 hPa 0,0 l/m 0,00 h 0,00 h 0 W/m 8,8 km/h (2 Bft)
03.04.2015 02:00 3,0 C 2,6 C 91 % 1022,8 hPa 0,0 l/m 0,00 h 0,00 h 0 W/m 9,0 km/h (2 Bft)
03.04.2015 03:00 3,5 C 2,8 C 91 % 1022,8 hPa 0,0 l/m 0,00 h 0,00 h 0 W/m 8,0 km/h (2 Bft)
03.04.2015 04:00 3,6 C 2,8 C 90 % 1022,7 hPa 0,0 l/m 0,00 h 0,00 h 0 W/m 6,3 km/h (2 Bft)
03.04.2015 05:00 3,4 C 2,5 C 90 % 1022,4 hPa 0,0 l/m 0,00 h 0,00 h 0 W/m 6,3 km/h (2 Bft)
03.04.2015 06:00 3,2 C 2,2 C 90 % 1022,2 hPa 0,0 l/m 0,00 h 0,00 h 0 W/m 6,7 km/h (2 Bft)
03.04.2015 07:00 3,2 C 2,7 C 90 % 1022,1 hPa 0,0 l/m 0,53 h 0,00 h 47 W/m 5,0 km/h (1 Bft)
03.04.2015 08:00 3,9 C 3,9 C 87 % 1021,9 hPa 0,0 l/m 1,00 h 0,00 h 188 W/m 5,7 km/h (1 Bft)
03.04.2015 09:00 5,6 C 5,0 C 80 % 1021,5 hPa 0,0 l/m 1,00 h 0,00 h 300 W/m 10,9 km/h (2 Bft)
03.04.2015 10:00 7,0 C 6,0 C 73 % 1021,0 hPa 0,0 l/m 1,00 h 0,00 h 433 W/m 12,3 km/h (3 Bft)
03.04.2015 11:00 8,0 C 7,7 C 70 % 1020,5 hPa 0,0 l/m 1,00 h 0,00 h 449 W/m 11,2 km/h (2 Bft)
03.04.2015 12:00 9,7 C 9,4 C 63 % 1019,9 hPa 0,0 l/m 0,97 h 0,00 h 607 W/m 12,0 km/h (2 Bft)
03.04.2015 13:00 10,3 C 10,3 C 58 % 1019,4 hPa 0,0 l/m 1,00 h 0,00 h 435 W/m 13,2 km/h (3 Bft)
03.04.2015 14:00 10,7 C 11,2 C 58 % 1018,7 hPa 0,0 l/m 1,00 h 0,00 h 445 W/m 13,0 km/h (3 Bft)
03.04.2015 15:00 11,3 C 13,1 C 57 % 1017,8 hPa 0,0 l/m 1,00 h 0,00 h 438 W/m 11,4 km/h (2 Bft)
03.04.2015 16:00 11,6 C 11,5 C 54 % 1017,1 hPa 0,0 l/m 0,90 h 0,00 h 291 W/m 7,3 km/h (2 Bft)
03.04.2015 17:00 10,8 C 10,4 C 55 % 1016,7 hPa 0,0 l/m 0,47 h 0,00 h 190 W/m 7,5 km/h (2 Bft)
03.04.2015 18:00 10,6 C 9,7 C 56 % 1016,5 hPa 0,0 l/m 0,20 h 0,00 h 108 W/m 7,4 km/h (2 Bft)
03.04.2015 19:00 10,1 C 8,1 C 59 % 1016,3 hPa 0,0 l/m 0,00 h 0,00 h 27 W/m 4,2 km/h (1 Bft)
03.04.2015 20:00 9,4 C 7,2 C 61 % 1016,4 hPa 0,0 l/m 0,00 h 0,00 h 6 W/m 5,0 km/h (1 Bft)
03.04.2015 21:00 8,7 C 7,2 C 65 % 1016,5 hPa 0,0 l/m 0,00 h 0,00 h 0 W/m 7,9 km/h (2 Bft)
03.04.2015 22:00 8,3 C 6,7 C 67 % 1016,6 hPa 0,0 l/m 0,00 h 0,00 h 0 W/m 8,3 km/h (2 Bft)
03.04.2015 23:00 8,0 C 6,7 C 68 % 1016,6 hPa 0,0 l/m 0,00 h 0,00 h 0 W/m 9,5 km/h (2 Bft)
04.04.2015 00:00 7,7 C 6,0 C 71 % 1016,1 hPa 0,0 l/m 0,00 h 0,00 h 0 W/m 8,7 km/h (2 Bft)
04.04.2015 01:00 7,4 C 5,7 C 72 % 1015,7 hPa 0,0 l/m 0,00 h 0,00 h 0 W/m 8,1 km/h (2 Bft)
04.04.2015 02:00 7,2 C 5,6 C 73 % 1015,6 hPa 0,0 l/m 0,00 h 0,00 h 0 W/m 6,4 km/h (2 Bft)
04.04.2015 03:00 7,0 C 5,6 C 73 % 1015,6 hPa 0,0 l/m 0,00 h 0,00 h 0 W/m 9,6 km/h (2 Bft)
04.04.2015 04:00 6,9 C 5,5 C 70 % 1015,5 hPa 0,0 l/m 0,00 h 0,10 h 0 W/m 15,8 km/h (3 Bft)
04.04.2015 05:00 6,5 C 3,8 C 78 % 1015,6 hPa 0,2 l/m 0,00 h 0,97 h 0 W/m 15,5 km/h (3 Bft)
04.04.2015 06:00 5,6 C 3,3 C 84 % 1015,7 hPa 0,0 l/m 0,00 h 0,57 h 0 W/m 6,1 km/h (2 Bft)
04.04.2015 07:00 5,2 C 3,2 C 88 % 1016,1 hPa 0,8 l/m 0,00 h 1,00 h 8 W/m 9,6 km/h (2 Bft)
04.04.2015 08:00 4,2 C 2,6 C 91 % 1016,7 hPa 0,8 l/m 0,00 h 1,00 h 18 W/m 14,2 km/h (3 Bft)
04.04.2015 09:00 3,4 C 2,2 C 93 % 1016,9 hPa 0,6 l/m 0,00 h 1,00 h 56 W/m 21,7 km/h (4 Bft)
04.04.2015 10:00 3,2 C 2,4 C 93 % 1017,5 hPa 0,2 l/m 0,00 h 0,43 h 127 W/m 17,0 km/h (3 Bft)
04.04.2015 11:00 4,4 C 3,4 C 90 % 1017,8 hPa 0,0 l/m 0,40 h 0,00 h 299 W/m 19,4 km/h (3 Bft)
04.04.2015 12:00 6,4 C 4,8 C 78 % 1018,1 hPa 0,0 l/m 0,77 h 0,00 h 574 W/m 22,3 km/h (4 Bft)
04.04.2015 13:00 8,1 C 6,9 C 66 % 1018,2 hPa 0,0 l/m 0,87 h 0,00 h 735 W/m 29,8 km/h (5 Bft)
04.04.2015 14:00 8,4 C 8,2 C 63 % 1018,2 hPa 0,0 l/m 0,77 h 0,00 h 671 W/m 31,5 km/h (5 Bft)
04.04.2015 15:00 8,9 C 11,5 C 59 % 1018,1 hPa 0,0 l/m 0,80 h 0,00 h 602 W/m 31,1 km/h (5 Bft)
04.04.2015 16:00 9,4 C 10,7 C 57 % 1017,9 hPa 0,0 l/m 0,93 h 0,00 h 587 W/m 32,4 km/h (5 Bft)
04.04.2015 17:00 9,2 C 8,7 C 57 % 1018,1 hPa 0,0 l/m 0,83 h 0,00 h 333 W/m 31,0 km/h (5 Bft)
04.04.2015 18:00 8,6 C 7,3 C 59 % 1018,4 hPa 0,0 l/m 0,63 h 0,00 h 159 W/m 27,3 km/h (4 Bft)
04.04.2015 19:00 8,0 C 6,5 C 62 % 1018,8 hPa 0,0 l/m 0,30 h 0,00 h 41 W/m 23,5 km/h (4 Bft)
04.04.2015 20:00 6,8 C 4,9 C 68 % 1019,7 hPa 0,0 l/m 0,03 h 0,00 h 9 W/m 16,9 km/h (3 Bft)
04.04.2015 21:00 5,6 C 4,0 C 73 % 1020,4 hPa 0,0 l/m 0,00 h 0,00 h 0 W/m 14,5 km/h (3 Bft)
04.04.2015 22:00 4,8 C 3,2 C 77 % 1021,1 hPa 0,0 l/m 0,00 h 0,00 h 0 W/m 13,3 km/h (3 Bft)
04.04.2015 23:00 4,0 C 2,2 C 79 % 1021,5 hPa 0,0 l/m 0,00 h 0,00 h 0 W/m 9,9 km/h (2 Bft)
05.04.2015 00:00 3,3 C 1,7 C 80 % 1021,7 hPa 0,0 l/m 0,00 h 0,00 h 0 W/m 9,4 km/h (2 Bft)
05.04.2015 01:00 2,5 C 0,4 C 82 % 1021,9 hPa 0,0 l/m 0,00 h 0,00 h 0 W/m 7,6 km/h (2 Bft)
05.04.2015 02:00 1,9 C 0,3 C 86 % 1022,1 hPa 0,0 l/m 0,00 h 0,00 h 0 W/m 7,5 km/h (2 Bft)
05.04.2015 03:00 1,1 C -1,2 C 87 % 1022,3 hPa 0,0 l/m 0,00 h 0,00 h 0 W/m 5,7 km/h (1 Bft)
05.04.2015 04:00 0,4 C -1,7 C 88 % 1022,6 hPa 0,0 l/m 0,00 h 0,00 h 0 W/m 4,5 km/h (1 Bft)
05.04.2015 05:00 -0,2 C -2,2 C 89 % 1022,9 hPa 0,0 l/m 0,00 h 0,00 h 0 W/m 4,8 km/h (1 Bft)
05.04.2015 06:00 -0,6 C -2,2 C 90 % 1023,3 hPa 0,0 l/m 0,00 h 0,00 h 5 W/m 5,3 km/h (1 Bft)
05.04.2015 07:00 -0,7 C -1,9 C 91 % 1023,8 hPa 0,0 l/m 0,43 h 0,00 h 36 W/m 5,1 km/h (1 Bft)
05.04.2015 08:00 0,1 C -0,1 C 93 % 1024,3 hPa 0,0 l/m 0,93 h 0,00 h 160 W/m 5,7 km/h (1 Bft)
05.04.2015 09:00 2,1 C 2,0 C 95 % 1024,8 hPa 0,0 l/m 1,00 h 0,00 h 341 W/m 8,7 km/h (2 Bft)
05.04.2015 10:00 4,8 C 4,3 C 91 % 1025,1 hPa 0,0 l/m 1,00 h 0,00 h 505 W/m 8,3 km/h (2 Bft)
05.04.2015 11:00 7,6 C 6,8 C 79 % 1025,3 hPa 0,0 l/m 1,00 h 0,00 h 631 W/m 10,3 km/h (2 Bft)
05.04.2015 12:00 9,5 C 8,7 C 68 % 1025,4 hPa 0,0 l/m 0,93 h 0,00 h 637 W/m 13,5 km/h (3 Bft)
05.04.2015 13:00 10,0 C 9,2 C 59 % 1025,3 hPa 0,0 l/m 0,53 h 0,00 h 470 W/m 15,2 km/h (3 Bft)
05.04.2015 14:00 9,4 C 9,4 C 55 % 1025,3 hPa 0,0 l/m 0,27 h 0,00 h 337 W/m 13,2 km/h (3 Bft)
05.04.2015 15:00 10,7 C 13,3 C 50 % 1025,1 hPa 0,0 l/m 0,70 h 0,00 h 525 W/m 15,5 km/h (3 Bft)
05.04.2015 16:00 10,2 C 10,1 C 52 % 1024,9 hPa 0,0 l/m 0,27 h 0,00 h 244 W/m 15,4 km/h (3 Bft)
05.04.2015 17:00 10,9 C 10,7 C 49 % 1024,8 hPa 0,0 l/m 0,37 h 0,00 h 243 W/m 15,0 km/h (3 Bft)
05.04.2015 18:00 10,3 C 8,9 C 51 % 1025,0 hPa 0,0 l/m 0,90 h 0,00 h 198 W/m 17,3 km/h (3 Bft)
05.04.2015 19:00 10,3 C 8,0 C 52 % 1025,3 hPa 0,0 l/m 0,33 h 0,00 h 51 W/m 11,4 km/h (2 Bft)
05.04.2015 20:00 8,5 C 5,4 C 57 % 1025,6 hPa 0,0 l/m 0,07 h 0,00 h 8 W/m 6,8 km/h (2 Bft)
05.04.2015 21:00 6,6 C 2,6 C 63 % 1025,9 hPa 0,0 l/m 0,00 h 0,00 h 0 W/m 3,6 km/h (1 Bft)
05.04.2015 22:00 4,9 C 1,6 C 70 % 1026,2 hPa 0,0 l/m 0,00 h 0,00 h 0 W/m 5,5 km/h (1 Bft)
05.04.2015 23:00 4,8 C 3,3 C 73 % 1026,5 hPa 0,0 l/m 0,00 h 0,00 h 0 W/m 10,0 km/h (2 Bft)
Min-Datum _ 05.04.15 05.04.15 05.04.15 31.03.15 - - - - 30.03.15
_ Min-Zeit 07:18 04:58 17:16 05:04 - - - - 20:58
Minimum _ -0,8 C -2,2 C 46 % 991,3 hPa - - - - 2,1 km/h (1 Bft)
Max-Datum _ 31.03.15 05.04.15 31.03.15 05.04.15 31.03.15 30.03.15 30.03.15 01.04.15 31.03.15
_ Max-Zeit 14:36 15:52 03:24 23:52 02:12 07:26 01:46 13:14 15:02
Maximum _ 13,1 C 16,7 C 98 % 1026,8 hPa 3,2 l/m 0,03 h 0,03 h 991 W/m 93,2 km/h
W-NW (10 Bft)
Durchschnitt _ 6,8 C 5,6 C 76 % 1013,8 hPa #28,6 l/m #43:28 h #32:53 h 261 W/m 24,3 km/h (4 Bft)
© 2015 W. Hausmann